createdAt,value
2019-04-04T00:00:24.667Z,9.70
2019-04-04T00:01:24.622Z,9.90
2019-04-04T00:02:24.615Z,10.70
2019-04-04T00:03:24.598Z,9.10
2019-04-04T00:04:24.612Z,9.10
2019-04-04T00:05:26.197Z,10.00
2019-04-04T00:06:25.050Z,10.80
2019-04-04T00:07:24.562Z,10.20
2019-04-04T00:08:24.547Z,11.30
2019-04-04T00:09:24.550Z,10.30
2019-04-04T00:10:24.532Z,11.00
2019-04-04T00:11:24.534Z,12.50
2019-04-04T00:12:24.493Z,11.10
2019-04-04T00:13:24.488Z,11.80
2019-04-04T00:14:24.495Z,11.30
2019-04-04T00:15:24.470Z,11.50
2019-04-04T00:16:24.454Z,11.90
2019-04-04T00:17:24.447Z,11.60
2019-04-04T00:18:25.519Z,11.90
2019-04-04T00:19:24.488Z,11.80
2019-04-04T00:20:24.410Z,11.60
2019-04-04T00:21:24.398Z,10.70
2019-04-04T00:22:24.406Z,12.10
2019-04-04T00:23:24.373Z,11.00
2019-04-04T00:24:24.358Z,11.60
2019-04-04T00:25:24.408Z,12.30
2019-04-04T00:26:24.337Z,11.00
2019-04-04T00:27:24.349Z,11.50
2019-04-04T00:28:24.318Z,13.60
2019-04-04T00:29:24.316Z,13.80
2019-04-04T00:30:24.326Z,12.40
2019-04-04T00:31:24.281Z,14.30
2019-04-04T00:32:24.283Z,15.30
2019-04-04T00:33:25.729Z,15.00
2019-04-04T00:34:27.672Z,14.30
2019-04-04T00:35:24.279Z,14.30
2019-04-04T00:36:24.237Z,13.70
2019-04-04T00:37:24.230Z,14.60
2019-04-04T00:38:24.216Z,15.80
2019-04-04T00:39:24.225Z,16.80
2019-04-04T00:40:24.211Z,16.10
2019-04-04T00:41:24.177Z,17.00
2019-04-04T00:42:24.163Z,16.60
2019-04-04T00:43:24.150Z,17.30
2019-04-04T00:44:24.151Z,17.20
2019-04-04T00:45:24.156Z,18.20
2019-04-04T00:46:24.162Z,18.40
2019-04-04T00:47:24.127Z,18.90
2019-04-04T00:48:24.107Z,19.40
2019-04-04T00:49:24.096Z,19.70
2019-04-04T00:50:24.114Z,17.90
2019-04-04T00:51:24.071Z,17.90
2019-04-04T00:52:24.061Z,19.30
2019-04-04T00:53:24.053Z,17.40
2019-04-04T00:54:24.025Z,17.60
2019-04-04T00:55:24.083Z,20.10
2019-04-04T00:56:24.004Z,19.40
2019-04-04T00:57:24.005Z,19.40
2019-04-04T00:58:23.999Z,18.60
2019-04-04T00:59:23.975Z,17.50
2019-04-04T01:00:24.634Z,19.80
2019-04-04T01:01:26.034Z,17.50
2019-04-04T01:02:23.942Z,19.10
2019-04-04T01:03:23.926Z,18.00
2019-04-04T01:04:23.913Z,20.10
2019-04-04T01:05:23.907Z,17.50
2019-04-04T01:06:23.925Z,18.60
2019-04-04T01:07:23.884Z,19.70
2019-04-04T01:08:23.877Z,22.70
2019-04-04T01:09:23.865Z,21.90
2019-04-04T01:10:23.866Z,20.90
2019-04-04T01:11:23.865Z,19.80
2019-04-04T01:12:23.831Z,21.30
2019-04-04T01:13:27.367Z,20.30
2019-04-04T01:14:23.818Z,20.80
2019-04-04T01:15:23.795Z,18.20
2019-04-04T01:16:23.803Z,17.60
2019-04-04T01:17:23.796Z,21.30
2019-04-04T01:18:23.760Z,19.40
2019-04-04T01:19:23.788Z,20.30
2019-04-04T01:20:23.754Z,19.20
2019-04-04T01:21:23.743Z,21.50
2019-04-04T01:22:25.012Z,21.10
2019-04-04T01:23:26.864Z,20.30
2019-04-04T01:24:23.719Z,19.50
2019-04-04T01:25:23.701Z,20.60
2019-04-04T01:26:23.692Z,21.60
2019-04-04T01:27:23.664Z,21.60
2019-04-04T01:28:23.666Z,22.40
2019-04-04T01:29:23.639Z,22.30
2019-04-04T01:30:23.627Z,21.40
2019-04-04T01:31:23.637Z,28.90
2019-04-04T01:32:23.633Z,21.90
2019-04-04T01:33:23.601Z,25.50
2019-04-04T01:34:23.585Z,24.00
2019-04-04T01:35:23.572Z,26.30
2019-04-04T01:36:25.222Z,25.80
2019-04-04T01:37:25.204Z,24.00
2019-04-04T01:38:23.543Z,27.60
2019-04-04T01:39:23.534Z,26.80
2019-04-04T01:40:23.514Z,25.40
2019-04-04T01:41:23.531Z,25.80
2019-04-04T01:42:23.523Z,26.90
2019-04-04T01:43:23.481Z,26.30
2019-04-04T01:44:23.468Z,26.10
2019-04-04T01:45:23.490Z,23.10
2019-04-04T01:46:23.479Z,24.20
2019-04-04T01:47:23.436Z,23.30
2019-04-04T01:48:23.419Z,25.30
2019-04-04T01:49:23.419Z,25.40
2019-04-04T01:50:23.410Z,23.40
2019-04-04T01:51:25.462Z,26.10
2019-04-04T01:52:23.418Z,26.90
2019-04-04T01:53:23.370Z,25.60
2019-04-04T01:54:23.355Z,26.60
2019-04-04T01:55:23.343Z,27.30
2019-04-04T01:56:23.344Z,27.60
2019-04-04T01:57:23.350Z,25.60
2019-04-04T01:58:23.309Z,27.80
2019-04-04T01:59:23.298Z,25.60
2019-04-04T02:00:23.290Z,28.00
2019-04-04T02:01:23.279Z,29.50
2019-04-04T02:02:23.290Z,28.50
2019-04-04T02:03:23.384Z,30.40
2019-04-04T02:04:24.842Z,27.20
2019-04-04T02:05:23.234Z,29.80
2019-04-04T02:06:23.222Z,31.60
2019-04-04T02:07:23.223Z,30.00
2019-04-04T02:08:23.243Z,28.90
2019-04-04T02:09:23.189Z,30.20
2019-04-04T02:10:23.191Z,30.50
2019-04-04T02:11:23.161Z,33.70
2019-04-04T02:12:23.169Z,30.10
2019-04-04T02:13:23.149Z,32.90
2019-04-04T02:14:23.142Z,30.60
2019-04-04T02:15:23.132Z,37.20
2019-04-04T02:16:23.122Z,30.80
2019-04-04T02:17:23.112Z,33.00
2019-04-04T02:18:23.577Z,31.80
2019-04-04T02:19:24.807Z,34.00
2019-04-04T02:20:23.074Z,32.20
2019-04-04T02:21:23.057Z,28.20
2019-04-04T02:22:23.103Z,33.70
2019-04-04T02:23:23.038Z,30.40
2019-04-04T02:24:23.020Z,32.90
2019-04-04T02:25:23.009Z,31.00
2019-04-04T02:26:22.995Z,31.90
2019-04-04T02:27:23.002Z,31.00
2019-04-04T02:28:23.020Z,33.40
2019-04-04T02:29:22.967Z,32.00
2019-04-04T02:30:22.976Z,29.50
2019-04-04T02:31:22.943Z,28.60
2019-04-04T02:32:26.070Z,29.30
2019-04-04T02:33:22.974Z,28.80
2019-04-04T02:34:22.909Z,31.00
2019-04-04T02:35:22.901Z,30.90
2019-04-04T02:36:22.898Z,33.80
2019-04-04T02:37:22.876Z,34.20
2019-04-04T02:38:27.174Z,32.80
2019-04-04T02:39:23.859Z,27.50
2019-04-04T02:40:22.859Z,29.10
2019-04-04T02:41:22.846Z,32.30
2019-04-04T02:42:22.827Z,33.10
2019-04-04T02:43:27.430Z,34.80
2019-04-04T02:44:23.813Z,32.40
2019-04-04T02:45:22.801Z,31.90
2019-04-04T02:46:22.862Z,29.80
2019-04-04T02:47:22.775Z,36.50
2019-04-04T02:48:24.492Z,33.70
2019-04-04T02:49:22.784Z,38.90
2019-04-04T02:50:22.774Z,39.80
2019-04-04T02:51:22.726Z,37.40
2019-04-04T02:52:22.715Z,36.60
2019-04-04T02:53:22.723Z,38.50
2019-04-04T02:54:24.522Z,38.00
2019-04-04T02:55:22.685Z,36.40
2019-04-04T02:56:22.688Z,35.60
2019-04-04T02:57:22.663Z,37.40
2019-04-04T02:58:22.684Z,32.90
2019-04-04T02:59:22.664Z,32.30
2019-04-04T03:00:26.410Z,35.00
2019-04-04T03:01:22.632Z,32.10
2019-04-04T03:02:22.604Z,31.80
2019-04-04T03:03:22.626Z,33.20
2019-04-04T03:04:22.596Z,33.60
2019-04-04T03:05:22.575Z,32.00
2019-04-04T03:06:24.431Z,35.10
2019-04-04T03:07:22.557Z,33.10
2019-04-04T03:08:22.544Z,37.70
2019-04-04T03:09:22.544Z,34.60
2019-04-04T03:10:22.518Z,33.90
2019-04-04T03:11:22.967Z,31.50
2019-04-04T03:12:25.743Z,32.20
2019-04-04T03:13:22.502Z,29.90
2019-04-04T03:14:22.526Z,32.60
2019-04-04T03:15:22.467Z,35.60
2019-04-04T03:16:22.644Z,34.20
2019-04-04T03:17:22.467Z,37.50
2019-04-04T03:18:22.473Z,34.50
2019-04-04T03:19:22.494Z,36.60
2019-04-04T03:20:22.413Z,38.00
2019-04-04T03:21:23.672Z,33.10
2019-04-04T03:22:24.660Z,33.00
2019-04-04T03:23:22.376Z,39.80
2019-04-04T03:24:22.390Z,36.00
2019-04-04T03:25:22.356Z,36.40
2019-04-04T03:26:22.347Z,32.80
2019-04-04T03:27:25.732Z,30.90
2019-04-04T03:28:22.338Z,31.60
2019-04-04T03:29:22.343Z,33.00
2019-04-04T03:30:22.314Z,34.50
2019-04-04T03:31:22.300Z,35.40
2019-04-04T03:32:22.275Z,33.70
2019-04-04T03:33:29.399Z,34.60
2019-04-04T03:34:23.261Z,33.90
2019-04-04T03:35:27.945Z,32.50
2019-04-04T03:36:23.244Z,34.10
2019-04-04T03:37:22.225Z,32.90
2019-04-04T03:38:22.231Z,32.30
2019-04-04T03:39:22.209Z,33.20
2019-04-04T03:40:24.715Z,31.20
2019-04-04T03:41:22.188Z,34.80
2019-04-04T03:42:22.169Z,35.80
2019-04-04T03:43:22.171Z,36.00
2019-04-04T03:44:22.167Z,33.00
2019-04-04T03:45:26.231Z,32.70
2019-04-04T03:46:23.128Z,35.70
2019-04-04T03:47:22.132Z,34.40
2019-04-04T03:48:22.109Z,39.50
2019-04-04T03:49:24.393Z,35.10
2019-04-04T03:50:22.113Z,35.60
2019-04-04T03:51:22.079Z,35.40
2019-04-04T03:52:22.058Z,37.40
2019-04-04T03:53:22.048Z,36.80
2019-04-04T03:54:23.346Z,36.20
2019-04-04T03:55:22.025Z,37.40
2019-04-04T03:56:22.038Z,37.00
2019-04-04T03:57:22.022Z,38.60
2019-04-04T03:58:22.012Z,37.30
2019-04-04T03:59:21.996Z,39.90
2019-04-04T04:00:22.003Z,35.60
2019-04-04T04:01:21.967Z,38.30
2019-04-04T04:02:21.946Z,36.80
2019-04-04T04:03:22.751Z,37.60
2019-04-04T04:04:21.933Z,37.30
2019-04-04T04:05:21.909Z,42.40
2019-04-04T04:06:21.913Z,40.10
2019-04-04T04:07:21.931Z,40.80
2019-04-04T04:08:22.277Z,38.70
2019-04-04T04:09:23.497Z,39.60
2019-04-04T04:10:21.853Z,43.10
2019-04-04T04:11:21.864Z,40.10
2019-04-04T04:12:21.829Z,42.10
2019-04-04T04:13:21.842Z,40.10
2019-04-04T04:14:22.720Z,40.00
2019-04-04T04:15:21.803Z,40.70
2019-04-04T04:16:21.807Z,35.90
2019-04-04T04:17:21.773Z,40.00
2019-04-04T04:18:22.014Z,38.80
2019-04-04T04:19:24.221Z,40.70
2019-04-04T04:20:21.745Z,42.50
2019-04-04T04:21:21.779Z,39.10
2019-04-04T04:22:21.859Z,39.50
2019-04-04T04:23:23.865Z,38.00
2019-04-04T04:24:21.747Z,37.40
2019-04-04T04:25:21.710Z,39.50
2019-04-04T04:26:21.709Z,39.30
2019-04-04T04:27:21.680Z,40.40
2019-04-04T04:28:21.665Z,41.00
2019-04-04T04:29:21.658Z,39.00
2019-04-04T04:30:21.670Z,38.50
2019-04-04T04:31:21.640Z,37.40
2019-04-04T04:32:22.707Z,38.00
2019-04-04T04:33:21.603Z,40.90
2019-04-04T04:34:21.600Z,42.70
2019-04-04T04:35:21.579Z,41.90
2019-04-04T04:36:21.591Z,38.70
2019-04-04T04:37:21.584Z,37.10
2019-04-04T04:38:25.621Z,39.50
2019-04-04T04:39:22.538Z,37.80
2019-04-04T04:40:21.539Z,39.90
2019-04-04T04:41:21.527Z,41.00
2019-04-04T04:42:21.763Z,40.40
2019-04-04T04:43:21.507Z,38.30
2019-04-04T04:44:21.479Z,39.60
2019-04-04T04:45:21.475Z,37.20
2019-04-04T04:46:21.494Z,40.10
2019-04-04T04:47:23.841Z,35.50
2019-04-04T04:48:21.444Z,35.40
2019-04-04T04:49:23.288Z,37.50
2019-04-04T04:50:21.430Z,38.50
2019-04-04T04:51:21.422Z,38.90
2019-04-04T04:52:21.446Z,35.80
2019-04-04T04:53:21.403Z,36.00
2019-04-04T04:54:22.710Z,37.80
2019-04-04T04:55:21.362Z,37.50
2019-04-04T04:56:21.351Z,39.40
2019-04-04T04:57:29.578Z,39.20
2019-04-04T04:58:22.329Z,39.70
2019-04-04T04:59:21.330Z,38.70
2019-04-04T05:00:21.337Z,34.20
2019-04-04T05:01:21.316Z,42.10
2019-04-04T05:02:22.361Z,39.00
2019-04-04T05:03:22.175Z,38.70
2019-04-04T05:04:21.265Z,41.80
2019-04-04T05:05:21.244Z,38.20
2019-04-04T05:06:21.237Z,38.40
2019-04-04T05:07:21.283Z,34.40
2019-04-04T05:08:21.223Z,37.90
2019-04-04T05:09:21.201Z,41.10
2019-04-04T05:10:21.195Z,41.40
2019-04-04T05:11:21.194Z,38.80
2019-04-04T05:12:21.849Z,42.10
2019-04-04T05:13:21.155Z,46.00
2019-04-04T05:14:21.171Z,43.30
2019-04-04T05:15:21.395Z,42.90
2019-04-04T05:16:21.129Z,43.80
2019-04-04T05:17:21.128Z,44.90
2019-04-04T05:18:21.126Z,41.10
2019-04-04T05:19:21.127Z,41.80
2019-04-04T05:20:21.094Z,40.10
2019-04-04T05:21:25.633Z,42.70
2019-04-04T05:22:22.090Z,42.50
2019-04-04T05:23:21.055Z,44.00
2019-04-04T05:24:21.036Z,45.80
2019-04-04T05:25:21.031Z,46.20
2019-04-04T05:26:21.013Z,40.70
2019-04-04T05:27:21.031Z,41.90
2019-04-04T05:28:20.998Z,40.10
2019-04-04T05:29:20.979Z,38.40
2019-04-04T05:30:20.976Z,40.20
2019-04-04T05:31:20.993Z,41.20
2019-04-04T05:32:21.777Z,45.10
2019-04-04T05:33:22.852Z,42.40
2019-04-04T05:34:20.941Z,41.00
2019-04-04T05:35:20.948Z,44.70
2019-04-04T05:36:20.908Z,40.40
2019-04-04T05:37:20.897Z,39.60
2019-04-04T05:38:20.917Z,37.90
2019-04-04T05:39:20.877Z,36.50
2019-04-04T05:40:23.229Z,40.80
2019-04-04T05:41:20.857Z,40.10
2019-04-04T05:42:20.852Z,37.30
2019-04-04T05:43:20.841Z,39.50
2019-04-04T05:44:20.878Z,39.10
2019-04-04T05:45:20.826Z,38.10
2019-04-04T05:46:20.825Z,35.90
2019-04-04T05:47:22.885Z,38.30
2019-04-04T05:48:20.806Z,41.20
2019-04-04T05:49:20.757Z,42.40
2019-04-04T05:50:20.767Z,41.20
2019-04-04T05:51:20.744Z,42.60
2019-04-04T05:52:20.732Z,42.30
2019-04-04T05:53:21.556Z,41.90
2019-04-04T05:54:20.741Z,49.10
2019-04-04T05:55:20.711Z,47.10
2019-04-04T05:56:20.689Z,48.70
2019-04-04T05:57:20.787Z,47.00
2019-04-04T05:58:22.565Z,49.50
2019-04-04T05:59:23.549Z,43.10
2019-04-04T06:00:20.678Z,43.50
2019-04-04T06:01:20.673Z,44.20
2019-04-04T06:02:20.633Z,44.50
2019-04-04T06:03:20.657Z,42.40
2019-04-04T06:04:20.610Z,43.30
2019-04-04T06:05:20.604Z,44.90
2019-04-04T06:06:20.572Z,40.70
2019-04-04T06:07:20.593Z,41.00
2019-04-04T06:08:20.550Z,40.80
2019-04-04T06:09:20.557Z,42.20
2019-04-04T06:10:20.531Z,44.40
2019-04-04T06:11:21.668Z,43.30
2019-04-04T06:12:20.524Z,44.00
2019-04-04T06:13:22.198Z,49.70
2019-04-04T06:14:20.760Z,54.20
2019-04-04T06:15:20.476Z,48.30
2019-04-04T06:16:20.472Z,45.80
2019-04-04T06:17:20.451Z,44.90
2019-04-04T06:18:20.444Z,45.30
2019-04-04T06:19:20.437Z,45.30
2019-04-04T06:20:20.472Z,44.90
2019-04-04T06:21:20.404Z,45.50
2019-04-04T06:22:21.143Z,46.20
2019-04-04T06:23:20.647Z,46.30
2019-04-04T06:24:20.373Z,48.70
2019-04-04T06:25:20.392Z,55.80
2019-04-04T06:26:20.358Z,48.80
2019-04-04T06:27:20.350Z,43.90
2019-04-04T06:28:20.328Z,47.50
2019-04-04T06:29:20.321Z,48.40
2019-04-04T06:30:20.791Z,46.30
2019-04-04T06:31:20.331Z,48.90
2019-04-04T06:32:20.292Z,43.40
2019-04-04T06:33:20.279Z,44.30
2019-04-04T06:34:20.296Z,48.30
2019-04-04T06:35:20.296Z,43.20
2019-04-04T06:36:20.297Z,45.70
2019-04-04T06:37:20.714Z,44.50
2019-04-04T06:38:23.077Z,42.00
2019-04-04T06:39:20.205Z,40.10
2019-04-04T06:40:20.215Z,42.00
2019-04-04T06:41:20.190Z,41.60
2019-04-04T06:42:20.173Z,43.40
2019-04-04T06:43:20.171Z,42.50
2019-04-04T06:44:20.177Z,43.70
2019-04-04T06:45:20.173Z,41.10
2019-04-04T06:46:22.744Z,41.60
2019-04-04T06:47:20.133Z,41.00
2019-04-04T06:48:20.113Z,41.80
2019-04-04T06:49:20.090Z,40.60
2019-04-04T06:50:20.103Z,39.90
2019-04-04T06:51:20.105Z,40.50
2019-04-04T06:52:20.063Z,43.90
2019-04-04T06:53:21.862Z,40.30
2019-04-04T06:54:20.042Z,42.90
2019-04-04T06:55:20.025Z,39.60
2019-04-04T06:56:20.074Z,40.70
2019-04-04T06:57:20.016Z,41.10
2019-04-04T06:58:19.997Z,38.50
2019-04-04T06:59:19.992Z,40.30
2019-04-04T07:00:19.981Z,40.00
2019-04-04T07:01:21.923Z,42.00
2019-04-04T07:02:19.966Z,38.20
2019-04-04T07:03:19.934Z,41.30
2019-04-04T07:04:19.969Z,41.60
2019-04-04T07:05:19.923Z,41.70
2019-04-04T07:06:19.927Z,39.70
2019-04-04T07:07:19.907Z,38.20
2019-04-04T07:08:19.882Z,37.60
2019-04-04T07:09:19.884Z,38.70
2019-04-04T07:10:21.820Z,37.60
2019-04-04T07:11:21.390Z,37.50
2019-04-04T07:12:24.310Z,38.90
2019-04-04T07:13:22.411Z,36.50
2019-04-04T07:14:19.818Z,36.40
2019-04-04T07:15:19.810Z,35.60
2019-04-04T07:16:19.852Z,32.00
2019-04-04T07:17:19.793Z,30.20
2019-04-04T07:18:19.774Z,33.30
2019-04-04T07:19:19.764Z,33.10
2019-04-04T07:20:19.760Z,37.90
2019-04-04T07:21:20.598Z,34.60
2019-04-04T07:22:20.626Z,33.80
2019-04-04T07:23:19.725Z,36.30
2019-04-04T07:24:19.723Z,34.30
2019-04-04T07:25:19.695Z,33.40
2019-04-04T07:26:19.683Z,31.60
2019-04-04T07:27:19.781Z,28.90
2019-04-04T07:28:19.761Z,31.50
2019-04-04T07:29:19.657Z,32.40
2019-04-04T07:30:19.640Z,32.70
2019-04-04T07:31:19.631Z,31.50
2019-04-04T07:32:19.635Z,34.10
2019-04-04T07:33:21.378Z,34.70
2019-04-04T07:34:19.597Z,32.60
2019-04-04T07:35:21.109Z,34.40
2019-04-04T07:36:20.251Z,29.60
2019-04-04T07:37:21.720Z,30.80
2019-04-04T07:38:19.569Z,30.00
2019-04-04T07:39:19.538Z,30.30
2019-04-04T07:40:20.367Z,33.10
2019-04-04T07:41:19.532Z,29.80
2019-04-04T07:42:19.542Z,30.90
2019-04-04T07:43:20.059Z,30.40
2019-04-04T07:44:21.152Z,35.20
2019-04-04T07:45:19.476Z,31.80
2019-04-04T07:46:19.478Z,32.30
2019-04-04T07:47:19.458Z,30.80
2019-04-04T07:48:19.456Z,29.60
2019-04-04T07:49:21.112Z,25.10
2019-04-04T07:50:19.434Z,24.90
2019-04-04T07:51:19.422Z,26.50
2019-04-04T07:52:19.429Z,24.00
2019-04-04T07:53:19.434Z,21.70
2019-04-04T07:54:19.372Z,20.10
2019-04-04T07:55:19.373Z,21.60
2019-04-04T07:56:19.354Z,18.10
2019-04-04T07:57:20.212Z,21.40
2019-04-04T07:58:19.342Z,22.40
2019-04-04T07:59:19.358Z,22.50
2019-04-04T08:00:19.324Z,24.90
2019-04-04T08:01:19.295Z,22.90
2019-04-04T08:02:19.307Z,23.40
2019-04-04T08:03:19.307Z,23.60
2019-04-04T08:04:19.280Z,25.20
2019-04-04T08:05:19.260Z,25.70
2019-04-04T08:06:19.257Z,26.80
2019-04-04T08:07:19.254Z,26.80
2019-04-04T08:08:19.241Z,25.50
2019-04-04T08:09:19.211Z,21.50
2019-04-04T08:10:20.936Z,23.90
2019-04-04T08:11:19.192Z,19.40
2019-04-04T08:12:19.176Z,22.10
2019-04-04T08:13:19.203Z,18.00
2019-04-04T08:14:19.163Z,19.40
2019-04-04T08:15:19.139Z,19.50
2019-04-04T08:16:19.140Z,19.40
2019-04-04T08:17:19.246Z,22.30
2019-04-04T08:18:19.129Z,18.40
2019-04-04T08:19:19.116Z,17.60
2019-04-04T08:20:19.148Z,15.50
2019-04-04T08:21:19.081Z,18.10
2019-04-04T08:22:19.210Z,17.20
2019-04-04T08:23:19.107Z,16.40
2019-04-04T08:24:19.042Z,17.70
2019-04-04T08:25:19.069Z,19.90
2019-04-04T08:26:19.056Z,17.60
2019-04-04T08:27:19.013Z,18.80
2019-04-04T08:28:19.058Z,18.20
2019-04-04T08:29:19.027Z,16.90
2019-04-04T08:30:19.003Z,18.60
2019-04-04T08:31:18.976Z,20.90
2019-04-04T08:32:18.956Z,21.10
2019-04-04T08:33:18.978Z,21.10
2019-04-04T08:34:18.956Z,25.00
2019-04-04T08:35:18.921Z,25.60
2019-04-04T08:36:18.923Z,25.30
2019-04-04T08:37:18.915Z,27.90
2019-04-04T08:38:18.896Z,26.10
2019-04-04T08:39:18.901Z,26.70
2019-04-04T08:40:18.934Z,25.80
2019-04-04T08:41:18.859Z,25.00
2019-04-04T08:42:18.850Z,28.60
2019-04-04T08:43:18.840Z,26.40
2019-04-04T08:44:18.886Z,27.60
2019-04-04T08:45:18.817Z,27.40
2019-04-04T08:46:20.047Z,30.50
2019-04-04T08:47:18.789Z,25.30
2019-04-04T08:48:18.782Z,22.90
2019-04-04T08:49:18.787Z,20.20
2019-04-04T08:50:18.760Z,20.10
2019-04-04T08:51:18.745Z,21.70
2019-04-04T08:52:20.808Z,18.80
2019-04-04T08:53:18.722Z,18.60
2019-04-04T08:54:18.746Z,16.90
2019-04-04T08:55:18.743Z,18.30
2019-04-04T08:56:18.688Z,17.80
2019-04-04T08:57:18.684Z,16.70
2019-04-04T08:58:18.667Z,17.20
2019-04-04T08:59:18.717Z,16.40
2019-04-04T09:00:18.665Z,15.50
2019-04-04T09:01:18.644Z,15.60
2019-04-04T09:02:18.640Z,15.00
2019-04-04T09:03:18.621Z,16.00
2019-04-04T09:04:18.606Z,16.10
2019-04-04T09:05:18.615Z,16.90
2019-04-04T09:06:18.590Z,17.60
2019-04-04T09:07:18.580Z,14.80
2019-04-04T09:08:18.574Z,13.40
2019-04-04T09:09:18.577Z,14.70
2019-04-04T09:10:18.556Z,14.60
2019-04-04T09:11:18.531Z,15.60
2019-04-04T09:12:18.590Z,15.50
2019-04-04T09:13:18.523Z,14.10
2019-04-04T09:14:18.501Z,11.60
2019-04-04T09:15:18.503Z,12.10
2019-04-04T09:16:18.475Z,13.40
2019-04-04T09:17:18.482Z,11.70
2019-04-04T09:18:18.474Z,12.70
2019-04-04T09:19:18.437Z,11.70
2019-04-04T09:20:18.445Z,12.20
2019-04-04T09:21:18.431Z,13.50
2019-04-04T09:22:18.411Z,12.70
2019-04-04T09:23:18.408Z,13.70
2019-04-04T09:24:18.380Z,13.40
2019-04-04T09:25:18.407Z,11.30
2019-04-04T09:26:18.391Z,12.20
2019-04-04T09:27:18.356Z,11.70
2019-04-04T09:28:18.341Z,12.80
2019-04-04T09:29:18.326Z,11.90
2019-04-04T09:30:18.347Z,11.80
2019-04-04T09:31:18.312Z,14.50
2019-04-04T09:32:18.309Z,14.00
2019-04-04T09:33:20.914Z,13.50
2019-04-04T09:34:18.322Z,12.10
2019-04-04T09:35:18.288Z,11.20
2019-04-04T09:36:18.277Z,13.70
2019-04-04T09:37:18.247Z,12.40
2019-04-04T09:38:18.258Z,12.70
2019-04-04T09:39:18.272Z,12.10
2019-04-04T09:40:18.213Z,10.70
2019-04-04T09:41:18.215Z,13.10
2019-04-04T09:42:18.187Z,11.10
2019-04-04T09:43:18.215Z,13.10
2019-04-04T09:44:18.166Z,11.40
2019-04-04T09:45:18.164Z,11.50
2019-04-04T09:46:18.188Z,10.80
2019-04-04T09:47:18.149Z,10.80
2019-04-04T09:48:18.122Z,9.50
2019-04-04T09:49:18.106Z,8.70
2019-04-04T09:50:18.101Z,9.60
2019-04-04T09:51:18.155Z,10.00
2019-04-04T09:52:18.086Z,9.90
2019-04-04T09:53:18.078Z,8.20
2019-04-04T09:54:19.475Z,7.90
2019-04-04T09:55:18.049Z,8.10
2019-04-04T09:56:18.063Z,7.40
2019-04-04T09:57:18.058Z,8.90
2019-04-04T09:58:18.041Z,8.10
2019-04-04T09:59:18.011Z,7.70
2019-04-04T10:00:17.993Z,7.50
2019-04-04T10:01:17.987Z,7.10
2019-04-04T10:02:18.309Z,8.70
2019-04-04T10:03:17.968Z,7.50
2019-04-04T10:04:17.951Z,8.20
2019-04-04T10:05:17.956Z,8.40
2019-04-04T10:06:17.937Z,8.00
2019-04-04T10:07:17.926Z,9.90
2019-04-04T10:08:17.911Z,7.70
2019-04-04T10:09:17.913Z,7.30
2019-04-04T10:10:17.874Z,5.90
2019-04-04T10:11:17.895Z,6.40
2019-04-04T10:12:17.886Z,6.80
2019-04-04T10:13:17.892Z,6.20
2019-04-04T10:14:17.830Z,7.20
2019-04-04T10:15:17.822Z,7.10
2019-04-04T10:16:17.885Z,7.10
2019-04-04T10:17:17.841Z,6.70
2019-04-04T10:18:17.790Z,7.80
2019-04-04T10:19:17.791Z,5.60
2019-04-04T10:20:17.768Z,5.70
2019-04-04T10:21:17.757Z,5.60
2019-04-04T10:22:17.788Z,5.40
2019-04-04T10:23:17.740Z,4.50
2019-04-04T10:24:17.797Z,5.40
2019-04-04T10:25:17.728Z,4.90
2019-04-04T10:26:17.721Z,5.00
2019-04-04T10:27:17.732Z,4.70
2019-04-04T10:28:17.690Z,5.00
2019-04-04T10:29:17.668Z,4.90
2019-04-04T10:30:17.740Z,5.30
2019-04-04T10:31:17.657Z,5.50
2019-04-04T10:32:17.635Z,4.90
2019-04-04T10:33:17.663Z,4.90
2019-04-04T10:34:17.618Z,5.10
2019-04-04T10:35:17.600Z,5.60
2019-04-04T10:36:17.617Z,5.00
2019-04-04T10:37:17.613Z,4.20
2019-04-04T10:38:17.614Z,4.60
2019-04-04T10:39:28.353Z,5.10
2019-04-04T10:40:18.544Z,5.00
2019-04-04T10:41:17.531Z,4.30
2019-04-04T10:42:17.531Z,4.30
2019-04-04T10:43:17.526Z,5.50
2019-04-04T10:44:17.508Z,4.40
2019-04-04T10:45:17.491Z,4.90
2019-04-04T10:46:17.487Z,4.30
2019-04-04T10:47:17.480Z,4.30
2019-04-04T10:48:17.482Z,4.60
2019-04-04T10:49:17.448Z,4.20
2019-04-04T10:50:17.438Z,4.50
2019-04-04T10:51:17.452Z,5.00
2019-04-04T10:52:17.427Z,4.60
2019-04-04T10:53:17.414Z,5.10
2019-04-04T10:54:17.425Z,5.20
2019-04-04T10:55:17.401Z,4.40
2019-04-04T10:56:17.387Z,4.50
2019-04-04T10:57:17.357Z,6.00
2019-04-04T10:58:17.360Z,5.90
2019-04-04T10:59:17.329Z,4.40
2019-04-04T11:00:17.322Z,4.90
2019-04-04T11:01:17.331Z,4.80
2019-04-04T11:02:17.301Z,4.50
2019-04-04T11:03:17.322Z,4.40
2019-04-04T11:04:17.275Z,4.80
2019-04-04T11:05:17.276Z,5.60
2019-04-04T11:06:17.262Z,5.00
2019-04-04T11:07:17.250Z,5.40
2019-04-04T11:08:17.255Z,5.10
2019-04-04T11:09:17.226Z,5.30
2019-04-04T11:10:17.210Z,5.20
2019-04-04T11:11:17.214Z,5.20
2019-04-04T11:12:17.201Z,5.70
2019-04-04T11:13:17.249Z,5.00
2019-04-04T11:14:17.171Z,5.10
2019-04-04T11:15:17.218Z,5.10
2019-04-04T11:16:24.553Z,7.60
2019-04-04T11:17:18.175Z,5.30
2019-04-04T11:18:17.143Z,5.70
2019-04-04T11:19:30.351Z,5.40
2019-04-04T11:20:18.097Z,6.10
2019-04-04T11:21:17.088Z,5.40
2019-04-04T11:22:17.081Z,5.30
2019-04-04T11:23:17.072Z,5.50
2019-04-04T11:24:17.080Z,5.60
2019-04-04T11:25:17.052Z,5.00
2019-04-04T11:26:17.038Z,5.70
2019-04-04T11:27:17.639Z,5.50
2019-04-04T11:28:17.011Z,5.30
2019-04-04T11:29:17.012Z,6.20
2019-04-04T11:30:17.000Z,4.90
2019-04-04T11:31:16.994Z,5.00
2019-04-04T11:32:16.973Z,4.40
2019-04-04T11:33:16.961Z,4.80
2019-04-04T11:34:16.976Z,4.70
2019-04-04T11:35:16.936Z,7.00
2019-04-04T11:36:16.935Z,5.50
2019-04-04T11:37:16.917Z,4.90
2019-04-04T11:38:16.924Z,4.40
2019-04-04T11:39:16.934Z,5.00
2019-04-04T11:40:16.877Z,4.30
2019-04-04T11:41:16.880Z,4.30
2019-04-04T11:42:16.855Z,6.10
2019-04-04T11:43:16.848Z,5.50
2019-04-04T11:44:16.852Z,6.10
2019-04-04T11:45:16.842Z,4.70
2019-04-04T11:46:16.816Z,4.80
2019-04-04T11:47:16.816Z,4.90
2019-04-04T11:48:16.797Z,5.40
2019-04-04T11:49:16.780Z,4.30
2019-04-04T11:50:16.799Z,6.10
2019-04-04T11:51:16.757Z,4.90
2019-04-04T11:52:16.752Z,4.80
2019-04-04T11:53:16.741Z,3.70
2019-04-04T11:54:16.756Z,5.20
2019-04-04T11:55:16.710Z,4.10
2019-04-04T11:56:16.770Z,3.90
2019-04-04T11:57:16.692Z,4.90
2019-04-04T11:58:16.683Z,4.70
2019-04-04T11:59:16.696Z,4.20
2019-04-04T12:00:16.677Z,3.70
2019-04-04T12:01:16.648Z,4.60
2019-04-04T12:02:16.632Z,4.90
2019-04-04T12:03:16.628Z,4.70
2019-04-04T12:04:16.615Z,4.20
2019-04-04T12:05:16.634Z,4.20
2019-04-04T12:06:16.595Z,4.10
2019-04-04T12:07:16.578Z,4.30
2019-04-04T12:08:16.572Z,4.40
2019-04-04T12:09:16.565Z,4.30
2019-04-04T12:10:16.572Z,4.30
2019-04-04T12:11:16.532Z,4.60
2019-04-04T12:12:16.546Z,5.10
2019-04-04T12:13:16.521Z,5.00
2019-04-04T12:14:16.510Z,4.00
2019-04-04T12:15:16.598Z,4.00
2019-04-04T12:16:16.479Z,4.20
2019-04-04T12:17:16.468Z,4.30
2019-04-04T12:18:16.468Z,4.30
2019-04-04T12:19:16.507Z,4.40
2019-04-04T12:20:16.449Z,4.50
2019-04-04T12:21:16.505Z,4.20
2019-04-04T12:22:16.437Z,4.90
2019-04-04T12:23:16.434Z,5.70
2019-04-04T12:24:16.398Z,4.40
2019-04-04T12:25:16.382Z,6.10
2019-04-04T12:26:16.387Z,5.90
2019-04-04T12:27:16.382Z,4.60
2019-04-04T12:28:16.349Z,5.30
2019-04-04T12:29:16.345Z,5.70
2019-04-04T12:30:16.324Z,5.70
2019-04-04T12:31:16.354Z,6.60
2019-04-04T12:32:16.303Z,6.10
2019-04-04T12:33:16.299Z,6.10
2019-04-04T12:34:16.335Z,5.90
2019-04-04T12:35:16.402Z,6.20
2019-04-04T12:36:24.415Z,6.10
2019-04-04T12:37:17.247Z,5.70
2019-04-04T12:38:16.234Z,6.20
2019-04-04T12:39:16.229Z,5.90
2019-04-04T12:40:20.880Z,5.10
2019-04-04T12:41:17.224Z,5.50
2019-04-04T12:42:16.217Z,4.80
2019-04-04T12:43:16.179Z,5.40
2019-04-04T12:44:16.198Z,5.10
2019-04-04T12:45:16.176Z,4.80
2019-04-04T12:46:16.172Z,5.50
2019-04-04T12:47:16.142Z,4.70
2019-04-04T12:48:16.182Z,5.50
2019-04-04T12:49:16.112Z,5.40
2019-04-04T12:50:16.144Z,6.00
2019-04-04T12:51:16.109Z,5.00
2019-04-04T12:52:16.084Z,6.20
2019-04-04T12:53:16.106Z,6.20
2019-04-04T12:54:16.062Z,4.80
2019-04-04T12:55:16.066Z,4.70
2019-04-04T12:56:16.064Z,5.10
2019-04-04T12:57:16.113Z,5.70
2019-04-04T12:58:16.027Z,5.70